Time;durP1;ratioP1;P1;durP2;ratioP2;P2;SDS_P1;SDS_P2;PMS_P1;PMS_P2;Temp;Humidity;BMP_temperature;BMP_pressure;BME280_temperature;BME280_humidity;BME280_pressure;Samples;Min_cycle;Max_cycle;Signal;HPM_P1;HPM_P2
2021/08/10 00:01:35;;;;;;;7.97;4.47;;;;;;;;;;4998081;28;20393;-70
2021/08/10 00:04:02;;;;;;;10.68;4.82;;;;;;;;;;5015705;28;20064;-70
2021/08/10 00:06:28;;;;;;;9.35;4.70;;;;;;;;;;5018750;28;20099;-72
2021/08/10 00:08:54;;;;;;;10.80;4.63;;;;;;;;;;5018842;28;20036;-70
2021/08/10 00:11:20;;;;;;;9.23;5.10;;;;;;;;;;5000592;28;20026;-68
2021/08/10 00:13:46;;;;;;;5.90;4.07;;;;;;;;;;4999535;28;20392;-71
2021/08/10 00:16:12;;;;;;;5.28;4.28;;;;;;;;;;5017724;28;20025;-70
2021/08/10 00:18:38;;;;;;;10.60;4.28;;;;;;;;;;5005442;28;20619;-71
2021/08/10 00:21:04;;;;;;;4.95;4.32;;;;;;;;;;4999374;28;20034;-72
2021/08/10 00:23:30;;;;;;;5.30;3.85;;;;;;;;;;4999942;28;20034;-71
2021/08/10 00:25:56;;;;;;;8.02;4.70;;;;;;;;;;4999793;28;20022;-72
2021/08/10 00:28:22;;;;;;;8.38;4.30;;;;;;;;;;4999256;28;20385;-75
2021/08/10 00:30:48;;;;;;;10.05;4.60;;;;;;;;;;5003284;28;20033;-69
2021/08/10 00:33:15;;;;;;;6.65;3.88;;;;;;;;;;5017895;28;20042;-71
2021/08/10 00:35:41;;;;;;;8.15;4.35;;;;;;;;;;5017595;28;20017;-71
2021/08/10 00:38:08;;;;;;;9.02;4.15;;;;;;;;;;5017751;28;20026;-69
2021/08/10 00:40:35;;;;;;;6.95;4.57;;;;;;;;;;5017749;28;20026;-67
2021/08/10 00:43:01;;;;;;;9.23;4.30;;;;;;;;;;5018125;28;20042;-73
2021/08/10 00:45:27;;;;;;;5.63;4.18;;;;;;;;;;5016978;28;20034;-73
2021/08/10 00:47:53;;;;;;;5.90;4.10;;;;;;;;;;4998420;28;20030;-72
2021/08/10 00:50:19;;;;;;;7.95;4.55;;;;;;;;;;4998544;28;20420;-72
2021/08/10 00:52:45;;;;;;;8.77;4.45;;;;;;;;;;5020257;28;20026;-69
2021/08/10 00:55:12;;;;;;;14.07;5.07;;;;;;;;;;5026661;28;20026;-70
2021/08/10 00:57:38;;;;;;;8.07;5.15;;;;;;;;;;5027066;28;20072;-68
2021/08/10 01:00:05;;;;;;;9.45;4.22;;;;;;;;;;5013793;28;20049;-69
2021/08/10 01:02:31;;;;;;;12.05;5.35;;;;;;;;;;5008043;28;20030;-68
2021/08/10 01:04:57;;;;;;;8.63;4.30;;;;;;;;;;5015886;28;20025;-70
2021/08/10 01:07:27;;;;;;;6.18;3.97;;;;;;;;;;5027727;28;20044;-69
2021/08/10 01:09:55;;;;;;;5.80;4.20;;;;;;;;;;5028011;28;20018;-66
2021/08/10 01:12:27;;;;;;;6.60;3.85;;;;;;;;;;5022609;28;20109;-70
2021/08/10 01:14:57;;;;;;;6.15;3.42;;;;;;;;;;5013903;28;20069;-72
2021/08/10 01:17:28;;;;;;;7.40;3.95;;;;;;;;;;5019212;28;20026;-71
2021/08/10 01:20:03;;;;;;;7.20;4.93;;;;;;;;;;4999990;28;20070;-71
2021/08/10 01:22:29;;;;;;;9.20;3.80;;;;;;;;;;5016717;28;20033;-72
2021/08/10 01:25:11;;;;;;;6.75;4.15;;;;;;;;;;5017462;28;20017;-74
2021/08/10 01:27:55;;;;;;;9.95;4.40;;;;;;;;;;5018623;28;20057;-70
2021/08/10 01:30:24;;;;;;;5.25;4.18;;;;;;;;;;5019353;28;20045;-71
2021/08/10 01:32:51;;;;;;;5.50;3.45;;;;;;;;;;5003051;28;20101;-68
2021/08/10 01:35:19;;;;;;;8.73;4.25;;;;;;;;;;5015849;28;20056;-71
2021/08/10 01:37:50;;;;;;;11.38;4.13;;;;;;;;;;5017333;28;20073;-72
2021/08/10 01:40:16;;;;;;;5.72;4.03;;;;;;;;;;5017258;28;20472;-75
2021/08/10 01:42:43;;;;;;;6.55;3.85;;;;;;;;;;5014374;28;20089;-68
2021/08/10 01:45:10;;;;;;;6.10;4.13;;;;;;;;;;5005253;28;20069;-70
2021/08/10 01:47:38;;;;;;;12.85;5.13;;;;;;;;;;4997323;28;20022;-71
2021/08/10 01:50:05;;;;;;;8.45;4.05;;;;;;;;;;5007639;28;20050;-71
2021/08/10 01:52:31;;;;;;;7.35;4.57;;;;;;;;;;5015741;28;20393;-75
2021/08/10 01:54:58;;;;;;;8.38;4.75;;;;;;;;;;5015964;28;20025;-71
2021/08/10 01:57:25;;;;;;;7.30;4.85;;;;;;;;;;5016835;28;20037;-72
2021/08/10 01:59:52;;;;;;;10.88;5.00;;;;;;;;;;5015641;28;20048;-72
2021/08/10 02:02:18;;;;;;;11.77;6.22;;;;;;;;;;5016196;28;20036;-73
2021/08/10 02:04:45;;;;;;;5.65;4.38;;;;;;;;;;5011068;28;20084;-74
2021/08/10 02:07:12;;;;;;;7.97;4.55;;;;;;;;;;5016500;28;20022;-74
2021/08/10 02:09:39;;;;;;;8.63;4.63;;;;;;;;;;5011342;28;20489;-70
2021/08/10 02:12:05;;;;;;;6.22;4.18;;;;;;;;;;4999885;28;20316;-72
2021/08/10 02:14:32;;;;;;;8.10;5.53;;;;;;;;;;5016082;28;20033;-73
2021/08/10 02:17:01;;;;;;;9.93;4.60;;;;;;;;;;5013381;28;20022;-73
2021/08/10 02:19:30;;;;;;;7.55;5.38;;;;;;;;;;4999526;28;20038;-70
2021/08/10 02:22:09;;;;;;;8.40;4.85;;;;;;;;;;5013439;28;20053;-72
2021/08/10 02:24:38;;;;;;;8.15;4.65;;;;;;;;;;5014768;28;20030;-71
2021/08/10 02:27:06;;;;;;;11.88;5.65;;;;;;;;;;4997575;28;20088;-70
2021/08/10 02:29:45;;;;;;;10.60;5.35;;;;;;;;;;4995211;28;20026;-71
2021/08/10 02:32:12;;;;;;;14.10;5.40;;;;;;;;;;5013109;28;20034;-72
2021/08/10 02:34:39;;;;;;;7.55;4.78;;;;;;;;;;5014885;28;20045;-71
2021/08/10 02:37:06;;;;;;;10.25;5.30;;;;;;;;;;4996542;28;20033;-72
2021/08/10 02:39:32;;;;;;;9.88;5.65;;;;;;;;;;4994912;28;20053;-73
2021/08/10 02:41:59;;;;;;;9.50;5.80;;;;;;;;;;5011278;28;20061;-72
2021/08/10 02:44:26;;;;;;;8.95;5.28;;;;;;;;;;5016132;28;20053;-70
2021/08/10 02:46:52;;;;;;;9.60;5.45;;;;;;;;;;5000483;28;20034;-71
2021/08/10 02:49:19;;;;;;;8.55;5.32;;;;;;;;;;4978243;28;20121;-72
2021/08/10 02:51:45;;;;;;;7.00;5.00;;;;;;;;;;4995440;28;20102;-72
2021/08/10 02:54:12;;;;;;;10.88;6.70;;;;;;;;;;4996504;28;20021;-70
2021/08/10 02:56:42;;;;;;;8.90;4.72;;;;;;;;;;4996453;28;20385;-73
2021/08/10 02:59:15;;;;;;;7.88;4.82;;;;;;;;;;4978210;28;20042;-73
2021/08/10 03:01:45;;;;;;;8.05;5.70;;;;;;;;;;4997511;28;20038;-72
2021/08/10 03:04:11;;;;;;;10.77;4.70;;;;;;;;;;4997034;28;20528;-72
2021/08/10 03:06:37;;;;;;;8.77;5.07;;;;;;;;;;4995324;28;20049;-68
2021/08/10 03:09:03;;;;;;;8.02;4.90;;;;;;;;;;4996415;28;20022;-72
2021/08/10 03:11:33;;;;;;;9.10;4.82;;;;;;;;;;5006713;28;20546;-74
2021/08/10 03:14:00;;;;;;;18.48;4.70;;;;;;;;;;5013988;28;20420;-74
2021/08/10 03:16:27;;;;;;;8.20;4.90;;;;;;;;;;5005160;28;20101;-69
2021/08/10 03:18:53;;;;;;;6.50;4.93;;;;;;;;;;4996519;28;20029;-73
2021/08/10 03:21:20;;;;;;;7.05;4.97;;;;;;;;;;4995465;28;20497;-73
2021/08/10 03:23:47;;;;;;;6.63;4.90;;;;;;;;;;5016062;28;20104;-70
2021/08/10 03:26:14;;;;;;;7.50;4.68;;;;;;;;;;4998325;28;20033;-72
2021/08/10 03:28:41;;;;;;;11.38;4.97;;;;;;;;;;4997562;28;20026;-73
2021/08/10 03:31:08;;;;;;;12.05;5.30;;;;;;;;;;4996456;28;20035;-73
2021/08/10 03:33:35;;;;;;;8.88;4.88;;;;;;;;;;5012501;28;20033;-71
2021/08/10 03:36:02;;;;;;;8.90;4.85;;;;;;;;;;5017910;28;20056;-72
2021/08/10 03:38:29;;;;;;;9.65;4.78;;;;;;;;;;5002666;28;20065;-74
2021/08/10 03:40:55;;;;;;;10.10;5.70;;;;;;;;;;4999705;28;20023;-71
2021/08/10 03:43:21;;;;;;;10.98;5.25;;;;;;;;;;5014098;28;20140;-71
2021/08/10 03:45:50;;;;;;;9.70;5.53;;;;;;;;;;5019208;28;20484;-74
2021/08/10 03:48:17;;;;;;;9.38;5.32;;;;;;;;;;5018188;28;20042;-73
2021/08/10 03:50:43;;;;;;;8.77;6.30;;;;;;;;;;5009519;28;20045;-73
2021/08/10 03:53:09;;;;;;;12.27;8.20;;;;;;;;;;5003042;28;20041;-68
2021/08/10 03:55:35;;;;;;;18.77;8.27;;;;;;;;;;5018416;28;20097;-72
2021/08/10 03:58:03;;;;;;;19.70;9.00;;;;;;;;;;5016507;28;20033;-72
2021/08/10 04:00:29;;;;;;;14.07;7.90;;;;;;;;;;4999184;28;20503;-69
2021/08/10 04:02:55;;;;;;;16.60;9.57;;;;;;;;;;4999971;28;20033;-70
2021/08/10 04:05:21;;;;;;;18.42;10.13;;;;;;;;;;5015375;28;20109;-70
2021/08/10 04:07:48;;;;;;;16.70;9.77;;;;;;;;;;5000986;28;20123;-71
2021/08/10 04:10:14;;;;;;;18.15;9.63;;;;;;;;;;4999193;28;20026;-72
2021/08/10 04:12:42;;;;;;;19.05;9.98;;;;;;;;;;5000016;28;20027;-72
2021/08/10 04:15:08;;;;;;;14.55;8.80;;;;;;;;;;4999560;28;20036;-72
2021/08/10 04:17:35;;;;;;;19.02;9.30;;;;;;;;;;5001905;28;20026;-74
2021/08/10 04:20:02;;;;;;;24.35;11.27;;;;;;;;;;5016121;28;20022;-71
2021/08/10 04:22:28;;;;;;;24.73;11.13;;;;;;;;;;4999274;28;20477;-72
2021/08/10 04:24:54;;;;;;;20.92;10.48;;;;;;;;;;4999315;28;20141;-71
2021/08/10 04:27:20;;;;;;;24.77;10.05;;;;;;;;;;5019531;28;20025;-70
2021/08/10 04:29:46;;;;;;;18.40;9.43;;;;;;;;;;5004245;28;20437;-72
2021/08/10 04:32:12;;;;;;;21.83;9.20;;;;;;;;;;4998554;28;20113;-70
2021/08/10 04:34:39;;;;;;;24.20;9.38;;;;;;;;;;5012335;28;20046;-71
2021/08/10 04:37:06;;;;;;;22.10;9.35;;;;;;;;;;5018416;28;20064;-73
2021/08/10 04:39:32;;;;;;;23.75;9.73;;;;;;;;;;5006507;28;20041;-74
2021/08/10 04:41:58;;;;;;;25.25;10.65;;;;;;;;;;4981427;28;20385;-72
2021/08/10 04:44:24;;;;;;;22.83;9.80;;;;;;;;;;5009674;28;20153;-72
2021/08/10 04:46:50;;;;;;;32.40;10.68;;;;;;;;;;5018653;28;20022;-72
2021/08/10 04:49:16;;;;;;;23.15;10.25;;;;;;;;;;5009183;28;20113;-70
2021/08/10 04:51:43;;;;;;;26.05;10.05;;;;;;;;;;5001550;28;20026;-71
2021/08/10 04:54:10;;;;;;;23.77;9.30;;;;;;;;;;5018155;28;20033;-72
2021/08/10 04:56:37;;;;;;;27.35;10.18;;;;;;;;;;5026242;28;20078;-67
2021/08/10 04:59:03;;;;;;;30.25;9.82;;;;;;;;;;5025036;28;20034;-68
2021/08/10 05:01:29;;;;;;;24.90;9.63;;;;;;;;;;5008129;28;20073;-69
2021/08/10 05:03:55;;;;;;;30.52;10.38;;;;;;;;;;5003712;28;20026;-67
2021/08/10 05:06:21;;;;;;;39.42;10.32;;;;;;;;;;5004165;28;20050;-68
2021/08/10 05:08:47;;;;;;;24.67;8.20;;;;;;;;;;4999333;28;20030;-72
2021/08/10 05:11:13;;;;;;;30.95;8.48;;;;;;;;;;5012645;28;20109;-73
2021/08/10 05:13:40;;;;;;;27.15;8.18;;;;;;;;;;5016655;28;20492;-72
2021/08/10 05:16:06;;;;;;;18.30;8.13;;;;;;;;;;5008316;28;20030;-70
2021/08/10 05:18:32;;;;;;;51.42;10.10;;;;;;;;;;5006856;28;20080;-72
2021/08/10 05:20:59;;;;;;;18.65;8.32;;;;;;;;;;5007950;28;20473;-69
2021/08/10 05:23:25;;;;;;;23.40;8.43;;;;;;;;;;4983503;28;20041;-71
2021/08/10 05:25:51;;;;;;;56.10;8.63;;;;;;;;;;5005826;28;20034;-70
2021/08/10 05:28:17;;;;;;;33.65;9.40;;;;;;;;;;5017805;28;20410;-68
2021/08/10 05:30:43;;;;;;;19.90;8.35;;;;;;;;;;5011913;28;20552;-71
2021/08/10 05:33:09;;;;;;;12.98;7.15;;;;;;;;;;5009483;28;20021;-70
2021/08/10 05:35:35;;;;;;;16.83;8.45;;;;;;;;;;5014354;28;20038;-71
2021/08/10 05:38:01;;;;;;;37.55;9.60;;;;;;;;;;5013443;28;20095;-72
2021/08/10 05:40:28;;;;;;;41.17;10.82;;;;;;;;;;4998900;28;20034;-72
2021/08/10 05:42:54;;;;;;;17.58;9.43;;;;;;;;;;5015566;28;20441;-70
2021/08/10 05:45:20;;;;;;;14.90;8.02;;;;;;;;;;5017470;28;20021;-69
2021/08/10 05:47:49;;;;;;;18.38;8.00;;;;;;;;;;5000702;28;20034;-72
2021/08/10 05:50:18;;;;;;;38.92;9.35;;;;;;;;;;5010252;28;20423;-69
2021/08/10 05:52:44;;;;;;;17.17;7.93;;;;;;;;;;5016641;28;20228;-73
2021/08/10 05:55:10;;;;;;;54.78;10.20;;;;;;;;;;5017632;28;20026;-72
2021/08/10 05:57:36;;;;;;;24.73;8.55;;;;;;;;;;5020060;28;20106;-68
2021/08/10 06:00:03;;;;;;;18.33;9.20;;;;;;;;;;5016450;28;20032;-69
2021/08/10 06:02:29;;;;;;;16.88;8.52;;;;;;;;;;5006080;28;20034;-71
2021/08/10 06:04:55;;;;;;;18.20;8.45;;;;;;;;;;4999315;28;20104;-69
2021/08/10 06:07:21;;;;;;;21.30;9.57;;;;;;;;;;4998911;28;20033;-67
2021/08/10 06:09:47;;;;;;;21.90;8.65;;;;;;;;;;4998997;28;20030;-71
2021/08/10 06:12:13;;;;;;;21.70;10.45;;;;;;;;;;4995133;28;20040;-71
2021/08/10 06:14:39;;;;;;;21.55;9.68;;;;;;;;;;5012614;28;20032;-74
2021/08/10 06:17:05;;;;;;;20.60;10.35;;;;;;;;;;5017457;28;20030;-76
2021/08/10 06:19:31;;;;;;;23.92;10.20;;;;;;;;;;5017348;28;20081;-72
2021/08/10 06:21:58;;;;;;;24.13;10.40;;;;;;;;;;4998632;28;20527;-73
2021/08/10 06:24:24;;;;;;;23.52;11.27;;;;;;;;;;5016750;28;20092;-72
2021/08/10 06:26:50;;;;;;;22.65;10.05;;;;;;;;;;5011768;28;20028;-74
2021/08/10 06:29:16;;;;;;;23.30;10.32;;;;;;;;;;4997226;28;20047;-73
2021/08/10 06:31:42;;;;;;;39.88;11.93;;;;;;;;;;4996838;28;20037;-75
2021/08/10 06:34:09;;;;;;;21.73;10.48;;;;;;;;;;5006560;28;20381;-69
2021/08/10 06:36:36;;;;;;;24.65;9.57;;;;;;;;;;5018289;28;20547;-69
2021/08/10 06:39:02;;;;;;;21.58;9.65;;;;;;;;;;5016570;28;20021;-71
2021/08/10 06:41:28;;;;;;;26.05;10.77;;;;;;;;;;5016896;28;20467;-71
2021/08/10 06:43:54;;;;;;;20.75;9.45;;;;;;;;;;5016779;28;20025;-72
2021/08/10 06:46:20;;;;;;;15.85;7.90;;;;;;;;;;5016570;28;20045;-73
2021/08/10 06:48:46;;;;;;;17.90;9.68;;;;;;;;;;5017294;28;20030;-72
2021/08/10 06:51:13;;;;;;;13.82;8.75;;;;;;;;;;5016705;28;20034;-73
2021/08/10 06:53:39;;;;;;;15.70;7.93;;;;;;;;;;5016804;28;20130;-73
2021/08/10 06:56:05;;;;;;;15.27;8.15;;;;;;;;;;5016442;28;20014;-73
2021/08/10 06:58:31;;;;;;;12.93;6.57;;;;;;;;;;5016612;28;20551;-72
2021/08/10 07:00:57;;;;;;;10.98;6.93;;;;;;;;;;5007085;28;20037;-76
2021/08/10 07:03:23;;;;;;;11.68;7.65;;;;;;;;;;5011580;28;20061;-66
2021/08/10 07:05:49;;;;;;;10.00;5.88;;;;;;;;;;5008259;28;20029;-73
2021/08/10 07:08:15;;;;;;;7.18;5.35;;;;;;;;;;5005324;28;20072;-73
2021/08/10 07:10:42;;;;;;;11.90;5.97;;;;;;;;;;5008484;28;20026;-75
2021/08/10 07:13:08;;;;;;;12.80;6.18;;;;;;;;;;5011082;28;20026;-74
2021/08/10 07:15:34;;;;;;;8.63;5.97;;;;;;;;;;5012507;28;20027;-76
2021/08/10 07:18:01;;;;;;;10.07;5.80;;;;;;;;;;5011989;28;20029;-73
2021/08/10 07:20:27;;;;;;;8.23;5.30;;;;;;;;;;5014003;28;20040;-77
2021/08/10 07:22:53;;;;;;;10.32;5.82;;;;;;;;;;5019876;28;20056;-68
2021/08/10 07:25:20;;;;;;;10.88;6.50;;;;;;;;;;5016638;28;20029;-74
2021/08/10 07:27:46;;;;;;;11.27;5.90;;;;;;;;;;5013484;28;20052;-71
2021/08/10 07:30:13;;;;;;;11.88;6.35;;;;;;;;;;5012084;28;20034;-71
2021/08/10 07:32:39;;;;;;;9.93;5.72;;;;;;;;;;5008143;28;20471;-67
2021/08/10 07:35:06;;;;;;;9.02;5.80;;;;;;;;;;4987206;28;20042;-75
2021/08/10 07:37:33;;;;;;;14.07;5.82;;;;;;;;;;5006928;28;20522;-73
2021/08/10 07:39:59;;;;;;;12.13;6.20;;;;;;;;;;5010460;28;20030;-66
2021/08/10 07:42:25;;;;;;;9.25;5.47;;;;;;;;;;5009770;28;20727;-72
2021/08/10 07:44:51;;;;;;;8.05;5.30;;;;;;;;;;5005208;28;20026;-73
2021/08/10 07:47:17;;;;;;;11.63;6.10;;;;;;;;;;5009664;28;20522;-72
2021/08/10 07:49:43;;;;;;;10.40;6.35;;;;;;;;;;5013305;28;20145;-72
2021/08/10 07:52:09;;;;;;;9.85;6.28;;;;;;;;;;4999601;28;20026;-75
2021/08/10 07:54:35;;;;;;;10.57;6.30;;;;;;;;;;5009266;28;20049;-71
2021/08/10 07:57:01;;;;;;;9.70;6.28;;;;;;;;;;5012156;28;20041;-72
2021/08/10 07:59:28;;;;;;;8.13;5.90;;;;;;;;;;5014821;28;20062;-69
2021/08/10 08:01:55;;;;;;;9.63;5.97;;;;;;;;;;5018622;28;20105;-73
2021/08/10 08:04:21;;;;;;;7.43;5.47;;;;;;;;;;5018430;28;20033;-68
2021/08/10 08:06:50;;;;;;;8.70;5.75;;;;;;;;;;5019220;28;20483;-68
2021/08/10 08:09:16;;;;;;;9.65;5.72;;;;;;;;;;5012274;28;20117;-71
2021/08/10 08:11:42;;;;;;;8.70;5.05;;;;;;;;;;4999031;28;20027;-73
2021/08/10 08:14:08;;;;;;;10.40;5.55;;;;;;;;;;5014279;28;20026;-72
2021/08/10 08:16:34;;;;;;;9.35;5.22;;;;;;;;;;5011340;28;20138;-73
2021/08/10 08:19:00;;;;;;;13.98;5.63;;;;;;;;;;4992825;28;20041;-73
2021/08/10 08:21:26;;;;;;;12.88;5.43;;;;;;;;;;4988573;28;20083;-73
2021/08/10 08:23:52;;;;;;;11.25;5.72;;;;;;;;;;5011540;28;20083;-71
2021/08/10 08:26:21;;;;;;;10.07;5.65;;;;;;;;;;5020769;28;20038;-67
2021/08/10 08:28:47;;;;;;;9.02;5.47;;;;;;;;;;5024648;28;20196;-68
2021/08/10 08:31:14;;;;;;;10.82;5.78;;;;;;;;;;5019624;28;20036;-72
2021/08/10 08:34:01;;;;;;;10.52;6.68;;;;;;;;;;5025378;28;20072;-69
2021/08/10 08:36:26;;;;;;;11.70;6.65;;;;;;;;;;5024605;28;20038;-76
2021/08/10 08:38:53;;;;;;;8.75;5.80;;;;;;;;;;5020826;28;20022;-73
2021/08/10 08:41:20;;;;;;;8.75;5.63;;;;;;;;;;5027957;28;20041;-68
2021/08/10 08:43:46;;;;;;;11.82;6.22;;;;;;;;;;5028248;28;20049;-68
2021/08/10 08:46:15;;;;;;;13.23;7.18;;;;;;;;;;5024086;28;20168;-75
2021/08/10 08:48:46;;;;;;;10.43;6.57;;;;;;;;;;5005036;28;20116;-74
2021/08/10 08:51:12;;;;;;;12.63;7.20;;;;;;;;;;5027630;28;20081;-69
2021/08/10 08:53:49;;;;;;;10.27;7.30;;;;;;;;;;5023395;28;20042;-71
2021/08/10 08:56:18;;;;;;;11.05;5.97;;;;;;;;;;5026753;28;20379;-68
2021/08/10 08:58:44;;;;;;;10.00;7.35;;;;;;;;;;5026599;28;20033;-68
2021/08/10 09:01:12;;;;;;;9.52;7.85;;;;;;;;;;5011816;28;20029;-68
2021/08/10 09:03:38;;;;;;;10.00;7.65;;;;;;;;;;5023129;28;20034;-72
2021/08/10 09:06:04;;;;;;;12.52;7.38;;;;;;;;;;5017851;28;20040;-72
2021/08/10 09:08:34;;;;;;;11.95;6.82;;;;;;;;;;5017554;28;20045;-72
2021/08/10 09:11:02;;;;;;;6.55;5.75;;;;;;;;;;5014741;28;20030;-71
2021/08/10 09:13:29;;;;;;;8.73;5.38;;;;;;;;;;5014670;28;20034;-71
2021/08/10 09:15:58;;;;;;;10.15;6.22;;;;;;;;;;5011745;28;20033;-73
2021/08/10 09:18:24;;;;;;;10.95;6.70;;;;;;;;;;5013877;28;20393;-74
2021/08/10 09:20:59;;;;;;;11.32;6.97;;;;;;;;;;5016656;28;20026;-73
2021/08/10 09:23:45;;;;;;;8.52;6.80;;;;;;;;;;5009702;28;20030;-73
2021/08/10 09:26:11;;;;;;;;;;;;;;;;;;5010568;28;20030;-74
2021/08/10 09:28:37;;;;;;;13.48;8.23;;;;;;;;;;5011237;28;19941;-72
2021/08/10 09:31:22;;;;;;;12.77;8.30;;;;;;;;;;5019888;28;20527;-72
2021/08/10 09:33:48;;;;;;;8.60;6.70;;;;;;;;;;5014281;28;20038;-72
2021/08/10 09:36:20;;;;;;;7.85;5.70;;;;;;;;;;5018008;28;20030;-72
2021/08/10 09:38:48;;;;;;;8.35;6.18;;;;;;;;;;5015008;28;20033;-74
2021/08/10 09:41:17;;;;;;;8.15;6.05;;;;;;;;;;5012785;28;20033;-71
2021/08/10 09:43:43;;;;;;;9.10;6.40;;;;;;;;;;5010404;28;20030;-72
2021/08/10 09:46:14;;;;;;;13.27;6.20;;;;;;;;;;5001184;28;20036;-72
2021/08/10 09:48:41;;;;;;;10.95;6.93;;;;;;;;;;5011891;28;20088;-70
2021/08/10 09:51:09;;;;;;;9.25;6.28;;;;;;;;;;5008839;28;20199;-75
2021/08/10 09:53:35;;;;;;;10.40;5.57;;;;;;;;;;5008704;28;20033;-70
2021/08/10 09:56:01;;;;;;;9.13;5.55;;;;;;;;;;5000009;28;20034;-74
2021/08/10 09:58:27;;;;;;;7.35;5.50;;;;;;;;;;5010309;28;20037;-75
2021/08/10 10:00:59;;;;;;;8.18;5.03;;;;;;;;;;5010076;28;20060;-73
2021/08/10 10:03:26;;;;;;;7.88;5.13;;;;;;;;;;5007621;28;20041;-72
2021/08/10 10:05:53;;;;;;;7.00;4.97;;;;;;;;;;5011075;28;20034;-73
2021/08/10 10:08:20;;;;;;;6.57;4.90;;;;;;;;;;4995721;28;20036;-74
2021/08/10 10:10:46;;;;;;;9.38;5.32;;;;;;;;;;5013893;28;20087;-74
2021/08/10 10:13:15;;;;;;;6.50;4.60;;;;;;;;;;5013835;28;20022;-72
2021/08/10 10:15:41;;;;;;;6.93;5.00;;;;;;;;;;5011661;28;20036;-73
2021/08/10 10:18:08;;;;;;;7.55;4.82;;;;;;;;;;5008021;28;20100;-74
2021/08/10 10:20:40;;;;;;;4.60;4.10;;;;;;;;;;5009389;28;20026;-74
2021/08/10 10:23:08;;;;;;;6.43;5.05;;;;;;;;;;5007986;28;20018;-74
2021/08/10 10:25:34;;;;;;;6.68;5.32;;;;;;;;;;5009419;28;20412;-72
2021/08/10 10:28:00;;;;;;;6.85;4.63;;;;;;;;;;5010369;28;20061;-73
2021/08/10 10:30:27;;;;;;;6.70;5.20;;;;;;;;;;5009831;28;20025;-74
2021/08/10 10:32:54;;;;;;;7.05;4.75;;;;;;;;;;5010903;28;20029;-74
2021/08/10 10:35:20;;;;;;;6.15;4.38;;;;;;;;;;5010777;28;20049;-73
2021/08/10 10:37:47;;;;;;;5.75;4.85;;;;;;;;;;5009396;28;20056;-76
2021/08/10 10:40:13;;;;;;;6.32;4.30;;;;;;;;;;5009051;28;20554;-76
2021/08/10 10:42:40;;;;;;;5.50;4.28;;;;;;;;;;5010147;28;20025;-76
2021/08/10 10:45:06;;;;;;;5.85;4.60;;;;;;;;;;5008737;28;20037;-75
2021/08/10 10:47:41;;;;;;;6.85;5.13;;;;;;;;;;5012280;28;20092;-76
2021/08/10 10:50:07;;;;;;;10.52;5.05;;;;;;;;;;5010640;28;20029;-77
2021/08/10 10:52:34;;;;;;;5.68;4.90;;;;;;;;;;5010267;28;20042;-74
2021/08/10 10:55:01;;;;;;;5.45;3.85;;;;;;;;;;4995673;28;20076;-74
2021/08/10 10:57:32;;;;;;;8.50;3.90;;;;;;;;;;5012124;28;20396;-76
2021/08/10 10:59:59;;;;;;;7.22;4.00;;;;;;;;;;4998711;28;20026;-72
2021/08/10 11:02:26;;;;;;;5.43;3.33;;;;;;;;;;5006549;28;20042;-73
2021/08/10 11:05:08;;;;;;;5.97;3.22;;;;;;;;;;5009301;28;20026;-73
2021/08/10 11:07:35;;;;;;;4.53;3.08;;;;;;;;;;5012038;28;20044;-74
2021/08/10 11:10:01;;;;;;;5.82;3.70;;;;;;;;;;5012501;28;20095;-73
2021/08/10 11:12:36;;;;;;;5.53;3.08;;;;;;;;;;5009251;28;20030;-72
2021/08/10 11:15:02;;;;;;;4.78;3.25;;;;;;;;;;4999257;28;20037;-70
2021/08/10 11:17:29;;;;;;;4.03;3.63;;;;;;;;;;4991397;28;20091;-74
2021/08/10 11:19:55;;;;;;;2.90;2.55;;;;;;;;;;5009711;28;20030;-74
2021/08/10 11:22:22;;;;;;;5.38;3.10;;;;;;;;;;4995807;28;20503;-73
2021/08/10 11:24:52;;;;;;;5.75;3.17;;;;;;;;;;5000351;28;20034;-75
2021/08/10 11:27:43;;;;;;;7.40;3.75;;;;;;;;;;4998326;28;20041;-76
2021/08/10 11:30:11;;;;;;;6.03;3.33;;;;;;;;;;5003499;28;20443;-73
2021/08/10 11:32:44;;;;;;;7.55;3.38;;;;;;;;;;5003455;28;20030;-77
2021/08/10 11:35:22;;;;;;;5.32;3.13;;;;;;;;;;5007530;28;20049;-73
2021/08/10 11:38:06;;;;;;;5.70;3.17;;;;;;;;;;5012231;28;20036;-74
2021/08/10 11:40:48;;;;;;;5.15;3.72;;;;;;;;;;5011269;28;20108;-76
2021/08/10 11:43:14;;;;;;;5.50;3.30;;;;;;;;;;5003466;28;20057;-73
2021/08/10 11:45:41;;;;;;;5.88;3.00;;;;;;;;;;5010843;28;20057;-73
2021/08/10 11:48:08;;;;;;;7.97;3.53;;;;;;;;;;5008031;28;20025;-75
2021/08/10 11:50:35;;;;;;;4.72;3.20;;;;;;;;;;5007882;28;20488;-75
2021/08/10 11:53:02;;;;;;;4.88;3.20;;;;;;;;;;5008890;28;20034;-75
2021/08/10 11:55:32;;;;;;;9.18;4.00;;;;;;;;;;5005727;28;20370;-74
2021/08/10 11:58:00;;;;;;;5.65;3.22;;;;;;;;;;5004577;28;20065;-74
2021/08/10 12:00:27;;;;;;;4.03;3.33;;;;;;;;;;5014261;28;20034;-76
2021/08/10 12:02:53;;;;;;;4.43;2.97;;;;;;;;;;5013606;28;20030;-73
2021/08/10 12:05:19;;;;;;;6.75;3.25;;;;;;;;;;5014370;28;20531;-73
2021/08/10 12:07:48;;;;;;;3.78;3.13;;;;;;;;;;5008845;28;20058;-74
2021/08/10 12:10:20;;;;;;;4.68;3.10;;;;;;;;;;4996172;28;20026;-72
2021/08/10 12:12:47;;;;;;;7.45;3.05;;;;;;;;;;4998062;28;20034;-76
2021/08/10 12:15:32;;;;;;;4.18;2.92;;;;;;;;;;4996145;28;20493;-70
2021/08/10 12:17:59;;;;;;;5.40;3.20;;;;;;;;;;4997000;28;20109;-73
2021/08/10 12:20:25;;;;;;;6.25;3.35;;;;;;;;;;5002202;28;20053;-73
2021/08/10 12:23:20;;;;;;;4.30;3.67;;;;;;;;;;5014193;28;20349;-73
2021/08/10 12:25:46;;;;;;;4.50;3.10;;;;;;;;;;4988838;28;20531;-74
2021/08/10 12:28:12;;;;;;;5.13;3.33;;;;;;;;;;4994758;28;20042;-74
2021/08/10 12:30:42;;;;;;;6.30;2.95;;;;;;;;;;4994700;28;20034;-72
2021/08/10 12:33:14;;;;;;;3.05;2.75;;;;;;;;;;4979566;28;20029;-75
2021/08/10 12:35:55;;;;;;;5.35;3.30;;;;;;;;;;5016075;28;20054;-73
2021/08/10 12:38:22;;;;;;;4.40;2.90;;;;;;;;;;5005382;28;20030;-73
2021/08/10 12:40:48;;;;;;;2.88;2.58;;;;;;;;;;5009717;28;20030;-73
2021/08/10 12:43:15;;;;;;;3.90;2.80;;;;;;;;;;5010387;28;20084;-75
2021/08/10 12:45:41;;;;;;;4.47;3.03;;;;;;;;;;5014451;28;20061;-72
2021/08/10 12:48:26;;;;;;;5.25;2.80;;;;;;;;;;5015288;28;20041;-76
2021/08/10 12:51:05;;;;;;;3.75;2.90;;;;;;;;;;5019170;28;20083;-73
2021/08/10 12:53:32;;;;;;;5.38;2.80;;;;;;;;;;5015476;28;20080;-73
2021/08/10 12:56:00;;;;;;;4.05;2.53;;;;;;;;;;5004758;28;20384;-68
2021/08/10 12:58:27;;;;;;;3.63;2.92;;;;;;;;;;5027878;28;20022;-67
2021/08/10 13:01:19;;;;;;;3.50;2.50;;;;;;;;;;5024381;28;20034;-73
2021/08/10 13:03:45;;;;;;;6.75;3.17;;;;;;;;;;5012461;28;20100;-73
2021/08/10 13:06:24;;;;;;;7.97;3.20;;;;;;;;;;5011878;28;20030;-74
2021/08/10 13:08:55;;;;;;;5.80;2.90;;;;;;;;;;5009028;28;20563;-75
2021/08/10 13:11:21;;;;;;;4.05;2.45;;;;;;;;;;5011808;28;20041;-70
2021/08/10 13:13:48;;;;;;;4.40;3.40;;;;;;;;;;5014169;28;20076;-75
2021/08/10 13:16:33;;;;;;;4.57;2.50;;;;;;;;;;5010167;28;20048;-76
2021/08/10 13:19:09;;;;;;;6.45;2.80;;;;;;;;;;5001584;28;20023;-76
2021/08/10 13:21:51;;;;;;;2.70;2.38;;;;;;;;;;5012864;28;20096;-74
2021/08/10 13:24:22;;;;;;;3.35;2.60;;;;;;;;;;5012777;28;20037;-76
2021/08/10 13:26:49;;;;;;;3.33;2.60;;;;;;;;;;5014787;28;20061;-73
2021/08/10 13:29:16;;;;;;;5.43;3.08;;;;;;;;;;4996327;28;20108;-76
2021/08/10 13:31:53;;;;;;;6.50;2.80;;;;;;;;;;5005225;28;20052;-73
2021/08/10 13:34:20;;;;;;;3.75;2.30;;;;;;;;;;5011434;28;20105;-75
2021/08/10 13:36:47;;;;;;;5.00;2.97;;;;;;;;;;5019386;28;20045;-75
2021/08/10 13:39:14;;;;;;;4.57;2.80;;;;;;;;;;5016197;28;20075;-74
2021/08/10 13:41:41;;;;;;;2.30;2.10;;;;;;;;;;5007022;28;20026;-75
2021/08/10 13:44:08;;;;;;;3.13;2.40;;;;;;;;;;5003659;28;20083;-75
2021/08/10 13:46:34;;;;;;;2.97;2.40;;;;;;;;;;5012327;28;20029;-74
2021/08/10 13:49:02;;;;;;;2.67;2.20;;;;;;;;;;5011821;28;20145;-73
2021/08/10 13:51:28;;;;;;;2.92;2.10;;;;;;;;;;5013986;28;20054;-75
2021/08/10 13:53:54;;;;;;;3.78;2.30;;;;;;;;;;5003619;28;20053;-74
2021/08/10 13:56:20;;;;;;;3.05;2.30;;;;;;;;;;5016775;28;20105;-72
2021/08/10 13:58:46;;;;;;;5.18;3.03;;;;;;;;;;5015331;28;20096;-74
2021/08/10 14:01:26;;;;;;;3.33;2.33;;;;;;;;;;5010124;28;20480;-73
2021/08/10 14:03:52;;;;;;;2.42;2.10;;;;;;;;;;4998441;28;20406;-73
2021/08/10 14:06:18;;;;;;;4.15;2.45;;;;;;;;;;5021834;28;20504;-72
2021/08/10 14:08:47;;;;;;;2.88;2.25;;;;;;;;;;5019696;28;20026;-70
2021/08/10 14:11:13;;;;;;;2.80;2.33;;;;;;;;;;5018166;28;20080;-72
2021/08/10 14:13:40;;;;;;;4.00;2.60;;;;;;;;;;4997806;28;20053;-74
2021/08/10 14:16:06;;;;;;;6.05;2.63;;;;;;;;;;4999045;28;20029;-73
2021/08/10 14:18:32;;;;;;;7.28;2.78;;;;;;;;;;5007490;28;20029;-69
2021/08/10 14:20:58;;;;;;;3.55;2.72;;;;;;;;;;5012866;28;20089;-71
2021/08/10 14:23:24;;;;;;;4.80;2.55;;;;;;;;;;5011632;28;20092;-73
2021/08/10 14:25:50;;;;;;;5.05;2.20;;;;;;;;;;5012338;28;20030;-74
2021/08/10 14:28:16;;;;;;;2.72;2.38;;;;;;;;;;5012503;28;20041;-71
2021/08/10 14:30:43;;;;;;;5.95;2.55;;;;;;;;;;5010464;28;20076;-73
2021/08/10 14:33:09;;;;;;;3.90;2.22;;;;;;;;;;5007381;28;20472;-73
2021/08/10 14:35:37;;;;;;;3.78;2.75;;;;;;;;;;5018231;28;20053;-72
2021/08/10 14:38:03;;;;;;;3.85;2.38;;;;;;;;;;5015662;28;20040;-74
2021/08/10 14:40:30;;;;;;;2.50;2.30;;;;;;;;;;5000324;28;20487;-72
2021/08/10 14:42:56;;;;;;;5.60;3.13;;;;;;;;;;4996640;28;20034;-73